Isle of Gigha, United Kingdom
Current Conditions -  °F | °C
As of 4:50 PM on Thursday 27 Nov 2014 (Local Time) from EGEC Reporting Station
Broken Clouds Broken Clouds  
Wind Chill: 42°   Ceiling: 1300
Heat Index: 46°   Visibility: 6mi
Dew Point: 43°   Wind: 8mph
Humidity: 87%   Direction: 70°ENE
Pressure: 29.53"   Gusts: NA
Location:  55.68°N, 5.74°W
Report Text: EGEC 271650Z 07007KT 9999 BKN013 08/06 Q1000
Loading
Personal Weather Stations






























Interactive Weather Map New forecast layout! Learn more

10-Day Weather Forecast

Advertisements
Track Severe Weather on mobile